aviador You're here:

KCON Decoded Metar

CONCORD in NH, USA
Report Time2017-04-25 07:51:00
UTC Time2017-04-25 08:23:18
Flight Rules vfr VFR
WindCalm
Visibility9999 m
Phenomena:N/A
Clouds:N/A
Expected CloudBase > 1,200 ft AGL from Temp-Dew spread
CeilingNone
Temp07°C (ISA -7)
Dew Point04°C (81% RH)
AAT5.7°C
QNH1024 hPa
Density Alt-804 ft
Elevation338 ft
Report Wrong Elevation
Raw Report
KCON 250751Z AUTO 00000KT 10SM CLR 07/04 A3024=

Extra information for KCON:More info

Metar Taf Metar & Taf Last 4 Metars F.Rules Stats Wind Profile Meteogram Temp Stats Airport Information Weather charts Add Link Nearby VenuesMetar ALERT Operation Metar Decoded Social comments

AIRNAV info for KCON